RYR3TJ LICA-LIMC
Flight info
| Callsign | RYR3TJ |
|---|---|
| Flight time | 1h 37m |
| Altitude | 34000 |
| Route | ARBUM DCT EVINO DCT PNZ DCT RIFFI DCT ELVIN DCT LUNAK DCT RAVAL DCT MEDAL DCT GILIO DCT UPDIN DCT SPEZI DCT IDONA DCT MEBUR |
| Aircraft | B738/M-SDE2E3FGHIRWXY/LB1 |
Departure
| Time | 2026-05-09 06:44 |
|---|---|
| Airport | Lamezia Terme Sant'Eufemia International Airport (LICA) |
Arrival
| Time | 2026-05-09 08:21 |
|---|---|
| Airport | Milan Malpensa International Airport (LIMC) |
| Time | Latitude | Longitude | Altitude | Speed | Heading |
|---|---|---|---|---|---|
| 2026-05-09 06:15 | 38.90875 | 16.24448 | 29 ft | 0 kts | 54° |
| 2026-05-09 06:38 | 38.90877 | 16.24455 | 31 ft | 2 kts | 73° |
| 2026-05-09 06:38 | 38.90866 | 16.24467 | 29 ft | 2 kts | 169° |
| 2026-05-09 06:39 | 38.90845 | 16.24460 | 31 ft | 4 kts | 189° |
| 2026-05-09 06:39 | 38.90818 | 16.24469 | 31 ft | 5 kts | 138° |
| 2026-05-09 06:39 | 38.90803 | 16.24516 | 31 ft | 8 kts | 101° |
| 2026-05-09 06:39 | 38.90793 | 16.24608 | 31 ft | 13 kts | 97° |
| 2026-05-09 06:40 | 38.90779 | 16.24748 | 31 ft | 18 kts | 97° |
| 2026-05-09 06:40 | 38.90758 | 16.24932 | 31 ft | 23 kts | 101° |
| 2026-05-09 06:40 | 38.90734 | 16.25135 | 31 ft | 23 kts | 98° |
| 2026-05-09 06:40 | 38.90666 | 16.25307 | 31 ft | 22 kts | 139° |
| 2026-05-09 06:41 | 38.90617 | 16.25486 | 32 ft | 21 kts | 99° |
| 2026-05-09 06:41 | 38.90597 | 16.25673 | 31 ft | 21 kts | 97° |
| 2026-05-09 06:41 | 38.90575 | 16.25854 | 31 ft | 20 kts | 98° |
| 2026-05-09 06:41 | 38.90556 | 16.26029 | 33 ft | 20 kts | 98° |
| 2026-05-09 06:42 | 38.90510 | 16.26183 | 30 ft | 19 kts | 146° |
| 2026-05-09 06:42 | 38.90396 | 16.26264 | 31 ft | 19 kts | 152° |
| 2026-05-09 06:42 | 38.90315 | 16.26232 | 33 ft | 12 kts | 251° |
| 2026-05-09 06:42 | 38.90319 | 16.26134 | 33 ft | 12 kts | 278° |
| 2026-05-09 06:43 | 38.90343 | 16.25921 | 30 ft | 51 kts | 278° |
| 2026-05-09 06:43 | 38.90423 | 16.25214 | 32 ft | 111 kts | 278° |
| 2026-05-09 06:43 | 38.90560 | 16.24017 | 63 ft | 154 kts | 275° |
| 2026-05-09 06:43 | 38.90743 | 16.22604 | 493 ft | 164 kts | 276° |
| 2026-05-09 06:44 | 38.90877 | 16.21105 | 1013 ft | 174 kts | 277° |
| 2026-05-09 06:44 | 38.91066 | 16.19566 | 1623 ft | 179 kts | 279° |
| 2026-05-09 06:44 | 38.91269 | 16.17892 | 1992 ft | 199 kts | 279° |
| 2026-05-09 06:44 | 38.91479 | 16.16058 | 2246 ft | 217 kts | 279° |
| 2026-05-09 06:45 | 38.91705 | 16.14092 | 2561 ft | 230 kts | 279° |
| 2026-05-09 06:45 | 38.92114 | 16.12034 | 2800 ft | 250 kts | 301° |
| 2026-05-09 06:45 | 38.93209 | 16.10265 | 3412 ft | 256 kts | 311° |
| 2026-05-09 06:45 | 38.94377 | 16.08533 | 4226 ft | 257 kts | 311° |
| 2026-05-09 06:46 | 38.95536 | 16.06799 | 5052 ft | 255 kts | 311° |
| 2026-05-09 06:46 | 38.96686 | 16.05071 | 5709 ft | 260 kts | 310° |
| 2026-05-09 06:46 | 38.97866 | 16.03292 | 6393 ft | 263 kts | 310° |
| 2026-05-09 06:46 | 38.99057 | 16.01490 | 7086 ft | 265 kts | 310° |
| 2026-05-09 06:47 | 39.00249 | 15.99682 | 7843 ft | 265 kts | 310° |
| 2026-05-09 06:47 | 39.01448 | 15.97861 | 8551 ft | 268 kts | 309° |
| 2026-05-09 06:47 | 39.02657 | 15.96025 | 9326 ft | 270 kts | 309° |
| 2026-05-09 06:47 | 39.04015 | 15.94362 | 10100 ft | 274 kts | 327° |
| 2026-05-09 06:48 | 39.05760 | 15.93270 | 10547 ft | 289 kts | 333° |
| 2026-05-09 06:48 | 39.07668 | 15.92158 | 10706 ft | 312 kts | 333° |
| 2026-05-09 06:48 | 39.09711 | 15.90975 | 10905 ft | 332 kts | 333° |
| 2026-05-09 06:48 | 39.11844 | 15.89737 | 11407 ft | 340 kts | 333° |
| 2026-05-09 06:49 | 39.14006 | 15.88479 | 12088 ft | 342 kts | 333° |
| 2026-05-09 06:49 | 39.16174 | 15.87211 | 12846 ft | 343 kts | 332° |
| 2026-05-09 06:49 | 39.18353 | 15.85931 | 13566 ft | 346 kts | 332° |
| 2026-05-09 06:49 | 39.20496 | 15.84670 | 14242 ft | 348 kts | 332° |
| 2026-05-09 06:50 | 39.22705 | 15.83368 | 14932 ft | 350 kts | 332° |
| 2026-05-09 06:50 | 39.24924 | 15.82059 | 15636 ft | 352 kts | 332° |
| 2026-05-09 06:50 | 39.27154 | 15.80737 | 16328 ft | 353 kts | 330° |
| 2026-05-09 06:50 | 39.29206 | 15.79027 | 16996 ft | 351 kts | 317° |
| 2026-05-09 06:51 | 39.31053 | 15.76964 | 17688 ft | 353 kts | 316° |
| 2026-05-09 06:51 | 39.32910 | 15.74873 | 18340 ft | 355 kts | 316° |
| 2026-05-09 06:51 | 39.34785 | 15.72767 | 18911 ft | 358 kts | 316° |
| 2026-05-09 06:51 | 39.36670 | 15.70660 | 19497 ft | 360 kts | 316° |
| 2026-05-09 06:52 | 39.38571 | 15.68543 | 20091 ft | 361 kts | 316° |
| 2026-05-09 06:52 | 39.40482 | 15.66421 | 20669 ft | 363 kts | 316° |
| 2026-05-09 06:52 | 39.42404 | 15.64288 | 21254 ft | 365 kts | 315° |
| 2026-05-09 06:52 | 39.44340 | 15.62142 | 21787 ft | 368 kts | 315° |
| 2026-05-09 06:53 | 39.46288 | 15.59981 | 22291 ft | 370 kts | 315° |
| 2026-05-09 06:53 | 39.48250 | 15.57803 | 22800 ft | 373 kts | 315° |
| 2026-05-09 06:53 | 39.50223 | 15.55612 | 23314 ft | 375 kts | 314° |
| 2026-05-09 06:53 | 39.52211 | 15.53402 | 23788 ft | 378 kts | 314° |
| 2026-05-09 06:54 | 39.54210 | 15.51180 | 24204 ft | 380 kts | 314° |
| 2026-05-09 06:54 | 39.56190 | 15.48976 | 24618 ft | 381 kts | 314° |
| 2026-05-09 06:54 | 39.58204 | 15.46734 | 25039 ft | 383 kts | 314° |
| 2026-05-09 06:54 | 39.60229 | 15.44476 | 25446 ft | 385 kts | 314° |
| 2026-05-09 06:55 | 39.62261 | 15.42208 | 25845 ft | 386 kts | 314° |
| 2026-05-09 06:55 | 39.64303 | 15.39928 | 26231 ft | 388 kts | 315° |
| 2026-05-09 06:55 | 39.66355 | 15.37635 | 26615 ft | 390 kts | 315° |
| 2026-05-09 06:55 | 39.68417 | 15.35330 | 26986 ft | 392 kts | 315° |
| 2026-05-09 06:56 | 39.70462 | 15.32974 | 27354 ft | 392 kts | 311° |
| 2026-05-09 06:56 | 39.72274 | 15.30345 | 27706 ft | 391 kts | 304° |
| 2026-05-09 06:56 | 39.73821 | 15.27437 | 28021 ft | 392 kts | 301° |
| 2026-05-09 06:56 | 39.75353 | 15.24482 | 28192 ft | 398 kts | 301° |
| 2026-05-09 06:57 | 39.76908 | 15.21485 | 28509 ft | 400 kts | 301° |
| 2026-05-09 06:57 | 39.78469 | 15.18487 | 28892 ft | 401 kts | 302° |
| 2026-05-09 06:57 | 39.80036 | 15.15483 | 29252 ft | 402 kts | 302° |
| 2026-05-09 06:57 | 39.81612 | 15.12464 | 29584 ft | 404 kts | 302° |
| 2026-05-09 06:58 | 39.83188 | 15.09447 | 30010 ft | 403 kts | 302° |
| 2026-05-09 06:58 | 39.84757 | 15.06444 | 30475 ft | 400 kts | 302° |
| 2026-05-09 06:58 | 39.86316 | 15.03459 | 30935 ft | 397 kts | 301° |
| 2026-05-09 06:58 | 39.87863 | 15.00495 | 31342 ft | 395 kts | 301° |
| 2026-05-09 06:59 | 39.89399 | 14.97546 | 31719 ft | 394 kts | 301° |
| 2026-05-09 06:59 | 39.90934 | 14.94598 | 32092 ft | 392 kts | 301° |
| 2026-05-09 06:59 | 39.92460 | 14.91665 | 32487 ft | 390 kts | 301° |
| 2026-05-09 06:59 | 39.93981 | 14.88737 | 32828 ft | 390 kts | 301° |
| 2026-05-09 07:00 | 39.95499 | 14.85812 | 33202 ft | 389 kts | 301° |
| 2026-05-09 07:00 | 39.97007 | 14.82905 | 33668 ft | 385 kts | 301° |
| 2026-05-09 07:00 | 39.98501 | 14.80024 | 34122 ft | 382 kts | 300° |
| 2026-05-09 07:00 | 39.99985 | 14.77158 | 34421 ft | 381 kts | 300° |
| 2026-05-09 07:01 | 40.01465 | 14.74295 | 34654 ft | 381 kts | 301° |
| 2026-05-09 07:01 | 40.02950 | 14.71421 | 34894 ft | 382 kts | 301° |
| 2026-05-09 07:01 | 40.04431 | 14.68551 | 35183 ft | 380 kts | 301° |
| 2026-05-09 07:01 | 40.05903 | 14.65697 | 35493 ft | 379 kts | 301° |
| 2026-05-09 07:02 | 40.07373 | 14.62844 | 35764 ft | 378 kts | 301° |
| 2026-05-09 07:02 | 40.08820 | 14.60034 | 36004 ft | 378 kts | 301° |
| 2026-05-09 07:02 | 40.10303 | 14.57150 | 36272 ft | 377 kts | 301° |
| 2026-05-09 07:02 | 40.11744 | 14.54348 | 36537 ft | 376 kts | 301° |
| 2026-05-09 07:03 | 40.13200 | 14.51511 | 36785 ft | 375 kts | 301° |
| 2026-05-09 07:03 | 40.14673 | 14.48639 | 37031 ft | 375 kts | 301° |
| 2026-05-09 07:03 | 40.16104 | 14.45848 | 37241 ft | 375 kts | 301° |
| 2026-05-09 07:03 | 40.17557 | 14.43010 | 37416 ft | 376 kts | 301° |
| 2026-05-09 07:04 | 40.19012 | 14.40165 | 37603 ft | 376 kts | 301° |
| 2026-05-09 07:04 | 40.20464 | 14.37325 | 37839 ft | 375 kts | 301° |
| 2026-05-09 07:04 | 40.21914 | 14.34487 | 38081 ft | 375 kts | 301° |
| 2026-05-09 07:04 | 40.23368 | 14.31636 | 38078 ft | 378 kts | 301° |
| 2026-05-09 07:05 | 40.26283 | 14.25913 | 38101 ft | 377 kts | 301° |
| 2026-05-09 07:05 | 40.29166 | 14.20248 | 38090 ft | 371 kts | 301° |
| 2026-05-09 07:06 | 40.32018 | 14.14630 | 38112 ft | 370 kts | 301° |
| 2026-05-09 07:06 | 40.34861 | 14.09019 | 38103 ft | 369 kts | 301° |
| 2026-05-09 07:07 | 40.37698 | 14.03412 | 38104 ft | 369 kts | 301° |
| 2026-05-09 07:07 | 40.40536 | 13.97791 | 38092 ft | 370 kts | 301° |
| 2026-05-09 07:08 | 40.43382 | 13.92144 | 38102 ft | 371 kts | 301° |
| 2026-05-09 07:08 | 40.46233 | 13.86477 | 38102 ft | 373 kts | 301° |
| 2026-05-09 07:09 | 40.49080 | 13.80808 | 38095 ft | 375 kts | 301° |
| 2026-05-09 07:09 | 40.51950 | 13.75082 | 38091 ft | 376 kts | 301° |
| 2026-05-09 07:10 | 40.54834 | 13.69319 | 38106 ft | 378 kts | 301° |
| 2026-05-09 07:10 | 40.57721 | 13.63538 | 38096 ft | 379 kts | 301° |
| 2026-05-09 07:11 | 40.60610 | 13.57743 | 38094 ft | 379 kts | 301° |
| 2026-05-09 07:11 | 40.63494 | 13.51948 | 38094 ft | 378 kts | 301° |
| 2026-05-09 07:12 | 40.66366 | 13.46167 | 38090 ft | 377 kts | 300° |
| 2026-05-09 07:12 | 40.69230 | 13.40389 | 38099 ft | 376 kts | 300° |
| 2026-05-09 07:13 | 40.72084 | 13.34620 | 38097 ft | 375 kts | 300° |
| 2026-05-09 07:13 | 40.74930 | 13.28859 | 38097 ft | 375 kts | 300° |
| 2026-05-09 07:14 | 40.77771 | 13.23094 | 38101 ft | 375 kts | 300° |
| 2026-05-09 07:14 | 40.80607 | 13.17330 | 38133 ft | 374 kts | 300° |
| 2026-05-09 07:15 | 40.82965 | 13.12528 | 38107 ft | 375 kts | 300° |
| 2026-05-09 07:15 | 40.85798 | 13.06750 | 38095 ft | 375 kts | 300° |
| 2026-05-09 07:16 | 40.88631 | 13.00963 | 38102 ft | 375 kts | 300° |
| 2026-05-09 07:16 | 40.91561 | 12.95246 | 38095 ft | 378 kts | 306° |
| 2026-05-09 07:17 | 40.95213 | 12.90195 | 38103 ft | 380 kts | 310° |
| 2026-05-09 07:17 | 40.98929 | 12.85210 | 38102 ft | 380 kts | 309° |
| 2026-05-09 07:18 | 41.02628 | 12.80207 | 38096 ft | 380 kts | 309° |
| 2026-05-09 07:18 | 41.06317 | 12.75191 | 38091 ft | 380 kts | 309° |
| 2026-05-09 07:19 | 41.09982 | 12.70195 | 38105 ft | 380 kts | 309° |
| 2026-05-09 07:19 | 41.13677 | 12.65149 | 38097 ft | 381 kts | 309° |
| 2026-05-09 07:20 | 41.17340 | 12.60138 | 38095 ft | 380 kts | 309° |
| 2026-05-09 07:20 | 41.21021 | 12.55096 | 38095 ft | 380 kts | 309° |
| 2026-05-09 07:21 | 41.24699 | 12.50059 | 38098 ft | 380 kts | 309° |
| 2026-05-09 07:21 | 41.28384 | 12.45022 | 38099 ft | 380 kts | 309° |
| 2026-05-09 07:22 | 41.32063 | 12.39982 | 38118 ft | 380 kts | 309° |
| 2026-05-09 07:22 | 41.35741 | 12.34933 | 38101 ft | 380 kts | 309° |
| 2026-05-09 07:23 | 41.39414 | 12.29881 | 38094 ft | 380 kts | 309° |
| 2026-05-09 07:23 | 41.43086 | 12.24822 | 38096 ft | 380 kts | 309° |
| 2026-05-09 07:24 | 41.46753 | 12.19763 | 38094 ft | 379 kts | 308° |
| 2026-05-09 07:24 | 41.50418 | 12.14696 | 38092 ft | 379 kts | 308° |
| 2026-05-09 07:25 | 41.54077 | 12.09620 | 38095 ft | 379 kts | 308° |
| 2026-05-09 07:25 | 41.57730 | 12.04543 | 38106 ft | 380 kts | 308° |
| 2026-05-09 07:26 | 41.61316 | 11.99549 | 38108 ft | 380 kts | 308° |
| 2026-05-09 07:26 | 41.64972 | 11.94449 | 38113 ft | 380 kts | 308° |
| 2026-05-09 07:27 | 41.68625 | 11.89347 | 38119 ft | 380 kts | 308° |
| 2026-05-09 07:27 | 41.72280 | 11.84233 | 38121 ft | 380 kts | 308° |
| 2026-05-09 07:28 | 41.75928 | 11.79122 | 38118 ft | 380 kts | 308° |
| 2026-05-09 07:28 | 41.79577 | 11.74001 | 38110 ft | 380 kts | 308° |
| 2026-05-09 07:29 | 41.83198 | 11.68908 | 38102 ft | 380 kts | 308° |
| 2026-05-09 07:29 | 41.86843 | 11.63769 | 38097 ft | 380 kts | 307° |
| 2026-05-09 07:30 | 41.90486 | 11.58624 | 38095 ft | 380 kts | 307° |
| 2026-05-09 07:30 | 41.94123 | 11.53477 | 38095 ft | 380 kts | 307° |
| 2026-05-09 07:31 | 41.97755 | 11.48328 | 38092 ft | 380 kts | 307° |
| 2026-05-09 07:31 | 42.01366 | 11.43200 | 38092 ft | 379 kts | 307° |
| 2026-05-09 07:32 | 42.04989 | 11.38048 | 38111 ft | 379 kts | 307° |
| 2026-05-09 07:32 | 42.08616 | 11.32885 | 38091 ft | 379 kts | 307° |
| 2026-05-09 07:33 | 42.14051 | 11.25136 | 38097 ft | 379 kts | 307° |
| 2026-05-09 07:34 | 42.17605 | 11.20054 | 38091 ft | 379 kts | 307° |
| 2026-05-09 07:34 | 42.21222 | 11.14874 | 38093 ft | 380 kts | 307° |
| 2026-05-09 07:35 | 42.24843 | 11.09679 | 38088 ft | 380 kts | 307° |
| 2026-05-09 07:35 | 42.28464 | 11.04476 | 38100 ft | 380 kts | 307° |
| 2026-05-09 07:36 | 42.32080 | 10.99269 | 38103 ft | 381 kts | 307° |
| 2026-05-09 07:36 | 42.35673 | 10.94090 | 38102 ft | 381 kts | 307° |
| 2026-05-09 07:37 | 42.39767 | 10.89471 | 38095 ft | 389 kts | 316° |
| 2026-05-09 07:37 | 42.44158 | 10.85164 | 38102 ft | 390 kts | 316° |
| 2026-05-09 07:38 | 42.48536 | 10.80847 | 38099 ft | 389 kts | 316° |
| 2026-05-09 07:38 | 42.52904 | 10.76509 | 38110 ft | 389 kts | 316° |
| 2026-05-09 07:39 | 42.57265 | 10.72162 | 38089 ft | 389 kts | 316° |
| 2026-05-09 07:39 | 42.61622 | 10.67809 | 38085 ft | 388 kts | 316° |
| 2026-05-09 07:40 | 42.65964 | 10.63462 | 38091 ft | 387 kts | 316° |
| 2026-05-09 07:40 | 42.70300 | 10.59114 | 38092 ft | 387 kts | 316° |
| 2026-05-09 07:41 | 42.74578 | 10.54816 | 38124 ft | 386 kts | 315° |
| 2026-05-09 07:41 | 42.78906 | 10.50460 | 38101 ft | 386 kts | 316° |
| 2026-05-09 07:42 | 42.83225 | 10.46106 | 38091 ft | 386 kts | 315° |
| 2026-05-09 07:42 | 42.87544 | 10.41744 | 38093 ft | 386 kts | 315° |
| 2026-05-09 07:43 | 42.91859 | 10.37378 | 38093 ft | 386 kts | 315° |
| 2026-05-09 07:43 | 42.96175 | 10.33004 | 38093 ft | 386 kts | 315° |
| 2026-05-09 07:44 | 43.00488 | 10.28624 | 38096 ft | 387 kts | 316° |
| 2026-05-09 07:44 | 43.04805 | 10.24233 | 38088 ft | 387 kts | 316° |
| 2026-05-09 07:45 | 43.09123 | 10.19833 | 38095 ft | 387 kts | 315° |
| 2026-05-09 07:45 | 43.13443 | 10.15422 | 38085 ft | 388 kts | 315° |
| 2026-05-09 07:46 | 43.17766 | 10.11001 | 38087 ft | 388 kts | 315° |
| 2026-05-09 07:46 | 43.22062 | 10.06599 | 38095 ft | 389 kts | 315° |
| 2026-05-09 07:47 | 43.26401 | 10.02146 | 38090 ft | 389 kts | 315° |
| 2026-05-09 07:47 | 43.30736 | 9.97687 | 38086 ft | 390 kts | 315° |
| 2026-05-09 07:48 | 43.35072 | 9.93221 | 38092 ft | 390 kts | 315° |
| 2026-05-09 07:48 | 43.39526 | 9.88918 | 38085 ft | 396 kts | 321° |
| 2026-05-09 07:49 | 43.44352 | 9.85216 | 38092 ft | 398 kts | 323° |
| 2026-05-09 07:49 | 43.49206 | 9.81547 | 37877 ft | 401 kts | 322° |
| 2026-05-09 07:49 | 43.51629 | 9.79694 | 37617 ft | 396 kts | 322° |
| 2026-05-09 07:50 | 43.54021 | 9.77857 | 37212 ft | 390 kts | 322° |
| 2026-05-09 07:50 | 43.56310 | 9.76091 | 36858 ft | 385 kts | 322° |
| 2026-05-09 07:50 | 43.58634 | 9.74290 | 36484 ft | 381 kts | 322° |
| 2026-05-09 07:50 | 43.60935 | 9.72503 | 36125 ft | 377 kts | 321° |
| 2026-05-09 07:51 | 43.63213 | 9.70731 | 35782 ft | 374 kts | 321° |
| 2026-05-09 07:51 | 43.65470 | 9.68973 | 35400 ft | 371 kts | 321° |
| 2026-05-09 07:51 | 43.67708 | 9.67229 | 35033 ft | 368 kts | 321° |
| 2026-05-09 07:51 | 43.69933 | 9.65493 | 34670 ft | 366 kts | 321° |
| 2026-05-09 07:52 | 43.72141 | 9.63770 | 34311 ft | 363 kts | 321° |
| 2026-05-09 07:52 | 43.74335 | 9.62058 | 33932 ft | 361 kts | 321° |
| 2026-05-09 07:52 | 43.76514 | 9.60355 | 33536 ft | 359 kts | 321° |
| 2026-05-09 07:52 | 43.78677 | 9.58665 | 33163 ft | 356 kts | 321° |
| 2026-05-09 07:53 | 43.80820 | 9.56990 | 32815 ft | 352 kts | 321° |
| 2026-05-09 07:53 | 43.82945 | 9.55327 | 32477 ft | 349 kts | 321° |
| 2026-05-09 07:53 | 43.85048 | 9.53681 | 32142 ft | 346 kts | 321° |
| 2026-05-09 07:53 | 43.87071 | 9.52094 | 31791 ft | 344 kts | 321° |
| 2026-05-09 07:54 | 43.89144 | 9.50465 | 31473 ft | 341 kts | 322° |
| 2026-05-09 07:54 | 43.91202 | 9.48848 | 31143 ft | 339 kts | 322° |
| 2026-05-09 07:54 | 43.93244 | 9.47242 | 30819 ft | 336 kts | 322° |
| 2026-05-09 07:54 | 43.95266 | 9.45652 | 30495 ft | 334 kts | 322° |
| 2026-05-09 07:55 | 43.97287 | 9.44073 | 30161 ft | 334 kts | 324° |
| 2026-05-09 07:55 | 43.99442 | 9.42782 | 29784 ft | 341 kts | 333° |
| 2026-05-09 07:55 | 44.01748 | 9.41939 | 29451 ft | 342 kts | 337° |
| 2026-05-09 07:55 | 44.04061 | 9.41186 | 29120 ft | 341 kts | 338° |
| 2026-05-09 07:56 | 44.06365 | 9.40449 | 28768 ft | 339 kts | 338° |
| 2026-05-09 07:56 | 44.08657 | 9.39713 | 28437 ft | 337 kts | 338° |
| 2026-05-09 07:56 | 44.10934 | 9.38975 | 28096 ft | 335 kts | 338° |
| 2026-05-09 07:56 | 44.13198 | 9.38235 | 27755 ft | 333 kts | 338° |
| 2026-05-09 07:57 | 44.15450 | 9.37495 | 27424 ft | 332 kts | 338° |
| 2026-05-09 07:57 | 44.17687 | 9.36756 | 27105 ft | 330 kts | 338° |
| 2026-05-09 07:57 | 44.19917 | 9.36017 | 26783 ft | 329 kts | 338° |
| 2026-05-09 07:57 | 44.22139 | 9.35279 | 26462 ft | 328 kts | 338° |
| 2026-05-09 07:58 | 44.24351 | 9.34544 | 26160 ft | 326 kts | 338° |
| 2026-05-09 07:58 | 44.26559 | 9.33809 | 25837 ft | 326 kts | 338° |
| 2026-05-09 07:58 | 44.28757 | 9.33077 | 25515 ft | 325 kts | 338° |
| 2026-05-09 07:58 | 44.30927 | 9.32353 | 25200 ft | 324 kts | 338° |
| 2026-05-09 07:59 | 44.33146 | 9.31612 | 24888 ft | 324 kts | 338° |
| 2026-05-09 07:59 | 44.35304 | 9.30892 | 24568 ft | 323 kts | 339° |
| 2026-05-09 07:59 | 44.37490 | 9.30161 | 24255 ft | 323 kts | 339° |
| 2026-05-09 07:59 | 44.39674 | 9.29430 | 23939 ft | 323 kts | 339° |
| 2026-05-09 08:00 | 44.41835 | 9.28708 | 23625 ft | 321 kts | 339° |
| 2026-05-09 08:00 | 44.44009 | 9.27981 | 23255 ft | 322 kts | 339° |
| 2026-05-09 08:00 | 44.46186 | 9.27251 | 22919 ft | 321 kts | 339° |
| 2026-05-09 08:00 | 44.48354 | 9.26523 | 22592 ft | 320 kts | 340° |
| 2026-05-09 08:01 | 44.50510 | 9.25800 | 22288 ft | 317 kts | 340° |
| 2026-05-09 08:01 | 44.52649 | 9.25083 | 21968 ft | 316 kts | 340° |
| 2026-05-09 08:01 | 44.54783 | 9.24365 | 21648 ft | 315 kts | 340° |
| 2026-05-09 08:01 | 44.56913 | 9.23648 | 21352 ft | 314 kts | 340° |
| 2026-05-09 08:02 | 44.59036 | 9.22932 | 21045 ft | 314 kts | 340° |
| 2026-05-09 08:02 | 44.61167 | 9.22213 | 20722 ft | 314 kts | 340° |
| 2026-05-09 08:02 | 44.63275 | 9.21503 | 20439 ft | 313 kts | 340° |
| 2026-05-09 08:02 | 44.65402 | 9.20785 | 20115 ft | 311 kts | 340° |
| 2026-05-09 08:03 | 44.67506 | 9.20076 | 19833 ft | 311 kts | 340° |
| 2026-05-09 08:03 | 44.69613 | 9.19364 | 19524 ft | 311 kts | 340° |
| 2026-05-09 08:03 | 44.71004 | 9.18892 | 19331 ft | 311 kts | 340° |
| 2026-05-09 08:03 | 44.73111 | 9.18178 | 19035 ft | 312 kts | 341° |
| 2026-05-09 08:04 | 44.75151 | 9.17216 | 18701 ft | 305 kts | 323° |
| 2026-05-09 08:04 | 44.76731 | 9.15325 | 18443 ft | 296 kts | 306° |
| 2026-05-09 08:04 | 44.77890 | 9.12958 | 18106 ft | 292 kts | 298° |
| 2026-05-09 08:04 | 44.78915 | 9.10494 | 17775 ft | 292 kts | 297° |
| 2026-05-09 08:05 | 44.79920 | 9.08008 | 17461 ft | 292 kts | 296° |
| 2026-05-09 08:05 | 44.80923 | 9.05528 | 17148 ft | 292 kts | 297° |
| 2026-05-09 08:05 | 44.81934 | 9.03043 | 16844 ft | 292 kts | 297° |
| 2026-05-09 08:05 | 44.82947 | 9.00569 | 16537 ft | 292 kts | 297° |
| 2026-05-09 08:06 | 44.83964 | 8.98096 | 16246 ft | 291 kts | 297° |
| 2026-05-09 08:06 | 44.84981 | 8.95630 | 15940 ft | 292 kts | 297° |
| 2026-05-09 08:06 | 44.86002 | 8.93155 | 15646 ft | 292 kts | 297° |
| 2026-05-09 08:06 | 44.87025 | 8.90677 | 15342 ft | 292 kts | 298° |
| 2026-05-09 08:07 | 44.88047 | 8.88201 | 15053 ft | 293 kts | 298° |
| 2026-05-09 08:07 | 44.89075 | 8.85707 | 14746 ft | 294 kts | 298° |
| 2026-05-09 08:07 | 44.90107 | 8.83207 | 14444 ft | 295 kts | 298° |
| 2026-05-09 08:07 | 44.91139 | 8.80703 | 14137 ft | 296 kts | 298° |
| 2026-05-09 08:08 | 44.92175 | 8.78187 | 13821 ft | 297 kts | 298° |
| 2026-05-09 08:08 | 44.93214 | 8.75663 | 13488 ft | 298 kts | 298° |
| 2026-05-09 08:08 | 44.94254 | 8.73132 | 13159 ft | 298 kts | 298° |
| 2026-05-09 08:08 | 44.95293 | 8.70602 | 12844 ft | 298 kts | 298° |
| 2026-05-09 08:09 | 44.96333 | 8.68071 | 12531 ft | 298 kts | 298° |
| 2026-05-09 08:09 | 44.97372 | 8.65537 | 12226 ft | 298 kts | 298° |
| 2026-05-09 08:09 | 44.98412 | 8.62998 | 11917 ft | 298 kts | 298° |
| 2026-05-09 08:09 | 44.99514 | 8.60516 | 11597 ft | 300 kts | 309° |
| 2026-05-09 08:10 | 45.01164 | 8.58771 | 11302 ft | 296 kts | 334° |
| 2026-05-09 08:10 | 45.03103 | 8.57916 | 11022 ft | 291 kts | 347° |
| 2026-05-09 08:10 | 45.05096 | 8.57392 | 10748 ft | 292 kts | 349° |
| 2026-05-09 08:10 | 45.07048 | 8.56906 | 10454 ft | 293 kts | 349° |
| 2026-05-09 08:11 | 45.09038 | 8.56396 | 10195 ft | 293 kts | 348° |
| 2026-05-09 08:11 | 45.11012 | 8.55868 | 10048 ft | 289 kts | 348° |
| 2026-05-09 08:11 | 45.12904 | 8.55350 | 9754 ft | 290 kts | 348° |
| 2026-05-09 08:11 | 45.14888 | 8.54801 | 9459 ft | 291 kts | 348° |
| 2026-05-09 08:12 | 45.18859 | 8.53697 | 8971 ft | 288 kts | 348° |
| 2026-05-09 08:12 | 45.20807 | 8.53156 | 8839 ft | 283 kts | 348° |
| 2026-05-09 08:12 | 45.22665 | 8.52639 | 8568 ft | 283 kts | 348° |
| 2026-05-09 08:13 | 45.24660 | 8.52086 | 8278 ft | 284 kts | 348° |
| 2026-05-09 08:13 | 45.26604 | 8.51546 | 7995 ft | 285 kts | 348° |
| 2026-05-09 08:13 | 45.28510 | 8.51018 | 7714 ft | 285 kts | 349° |
| 2026-05-09 08:13 | 45.30397 | 8.50968 | 7411 ft | 287 kts | 13° |
| 2026-05-09 08:14 | 45.32167 | 8.52202 | 7142 ft | 286 kts | 41° |
| 2026-05-09 08:14 | 45.33354 | 8.54432 | 6860 ft | 285 kts | 66° |
| 2026-05-09 08:14 | 45.33903 | 8.57125 | 6587 ft | 284 kts | 79° |
| 2026-05-09 08:14 | 45.34270 | 8.59880 | 6330 ft | 282 kts | 81° |
| 2026-05-09 08:15 | 45.34613 | 8.62581 | 6144 ft | 274 kts | 80° |
| 2026-05-09 08:15 | 45.34952 | 8.65177 | 5993 ft | 260 kts | 80° |
| 2026-05-09 08:15 | 45.35278 | 8.67656 | 5753 ft | 251 kts | 80° |
| 2026-05-09 08:15 | 45.35599 | 8.70049 | 5459 ft | 245 kts | 79° |
| 2026-05-09 08:16 | 45.35934 | 8.72529 | 4774 ft | 263 kts | 79° |
| 2026-05-09 08:16 | 45.36285 | 8.75103 | 4383 ft | 266 kts | 77° |
| 2026-05-09 08:16 | 45.37048 | 8.77468 | 4050 ft | 266 kts | 47° |
| 2026-05-09 08:16 | 45.38597 | 8.78815 | 3780 ft | 264 kts | 13° |
| 2026-05-09 08:17 | 45.40407 | 8.79114 | 3516 ft | 262 kts | 0° |
| 2026-05-09 08:17 | 45.42228 | 8.79015 | 3219 ft | 261 kts | 355° |
| 2026-05-09 08:17 | 45.43993 | 8.78644 | 3063 ft | 260 kts | 348° |
| 2026-05-09 08:17 | 45.45728 | 8.78129 | 3019 ft | 249 kts | 348° |
| 2026-05-09 08:18 | 45.47366 | 8.77669 | 2989 ft | 231 kts | 349° |
| 2026-05-09 08:18 | 45.48880 | 8.77254 | 2975 ft | 212 kts | 349° |
| 2026-05-09 08:18 | 45.50243 | 8.76879 | 2959 ft | 194 kts | 348° |
| 2026-05-09 08:18 | 45.51551 | 8.76517 | 2708 ft | 189 kts | 349° |
| 2026-05-09 08:19 | 45.52805 | 8.76171 | 2463 ft | 177 kts | 349° |
| 2026-05-09 08:19 | 45.53969 | 8.75850 | 2253 ft | 169 kts | 349° |
| 2026-05-09 08:19 | 45.55092 | 8.75540 | 2026 ft | 163 kts | 349° |
| 2026-05-09 08:19 | 45.56175 | 8.75241 | 1808 ft | 155 kts | 350° |
| 2026-05-09 08:20 | 45.57181 | 8.74964 | 1630 ft | 152 kts | 350° |
| 2026-05-09 08:20 | 45.58233 | 8.74674 | 1426 ft | 155 kts | 350° |
| 2026-05-09 08:20 | 45.59285 | 8.74383 | 1213 ft | 153 kts | 349° |
| 2026-05-09 08:20 | 45.60322 | 8.74098 | 1005 ft | 151 kts | 349° |
| 2026-05-09 08:21 | 45.61350 | 8.73813 | 831 ft | 151 kts | 349° |
| 2026-05-09 08:21 | 45.62355 | 8.73537 | 742 ft | 135 kts | 350° |
| 2026-05-09 08:21 | 45.63041 | 8.73336 | 736 ft | 55 kts | 340° |
| 2026-05-09 08:21 | 45.63262 | 8.73056 | 740 ft | 37 kts | 308° |
| 2026-05-09 08:22 | 45.63372 | 8.72826 | 739 ft | 20 kts | 303° |
| 2026-05-09 08:22 | 45.63406 | 8.72656 | 740 ft | 17 kts | 268° |
| 2026-05-09 08:22 | 45.63388 | 8.72492 | 738 ft | 16 kts | 259° |
| 2026-05-09 08:22 | 45.63368 | 8.72346 | 740 ft | 15 kts | 259° |
| 2026-05-09 08:23 | 45.63349 | 8.72206 | 741 ft | 14 kts | 259° |
| 2026-05-09 08:23 | 45.63329 | 8.72069 | 739 ft | 15 kts | 258° |
| 2026-05-09 08:23 | 45.63308 | 8.71904 | 740 ft | 19 kts | 259° |
| 2026-05-09 08:23 | 45.63281 | 8.71711 | 740 ft | 18 kts | 256° |
| 2026-05-09 08:24 | 45.63184 | 8.71682 | 740 ft | 17 kts | 169° |
| 2026-05-09 08:24 | 45.63057 | 8.71717 | 740 ft | 20 kts | 169° |
| 2026-05-09 08:24 | 45.62926 | 8.71753 | 738 ft | 18 kts | 169° |
| 2026-05-09 08:24 | 45.62815 | 8.71783 | 740 ft | 9 kts | 169° |
| 2026-05-09 08:25 | 45.62781 | 8.71739 | 738 ft | 8 kts | 256° |
| 2026-05-09 08:25 | 45.62774 | 8.71684 | 740 ft | 0 kts | 259° |